Ellipsis — WDE4581 — position and weather

sailwx.info

Track history (hours):
 
Tides and Currents Weather Stations Pressure Air Temp Water Temp Dewpoint Dewpoint Depression Visibility Wind Speed Wind Dir Waves Ship Positions

Ellipsis

More information available from US FCC via Universal Licensing System and Coast Guard Vessel Documentation Center.

Last reported at 2014-Jul-29 22:31 UTC. Time now 2014-Jul-29 23:01 UTC.
Position N 48°57' W 125°33'.

Length 19 m.

Type: Pleasure craft. MMSI: 367355160.

Date/timePositionNaut miles runAvg speedWind from/ knotsBaromVisibWave heightAir tempDewpointWater temp
2014-Jul-29 22:31N 48°57' W 125°33'0 0.0
2014-Jul-29 21:31N 48°57' W 125°33'0 0.0
2014-Jul-29 20:31N 48°57' W 125°33'0 0.0
2014-Jul-29 19:31N 48°57' W 125°33'0 0.0
2014-Jul-29 18:31N 48°57' W 125°33'0 0.0
2014-Jul-29 17:31N 48°57' W 125°33'0 0.0
2014-Jul-29 16:31N 48°57' W 125°33'0 0.0
2014-Jul-29 15:31N 48°57' W 125°33'0 0.0
2014-Jul-29 14:31N 48°57' W 125°33'0 0.0
2014-Jul-29 13:31N 48°57' W 125°33'0 0.0
2014-Jul-29 12:31N 48°57' W 125°33'0 0.0
2014-Jul-29 11:31N 48°57' W 125°33'0 0.0
2014-Jul-29 10:31N 48°57' W 125°33'0 0.0
2014-Jul-29 09:31N 48°57' W 125°33'0 0.0
2014-Jul-29 08:31N 48°57' W 125°33'0 0.0
2014-Jul-29 07:31N 48°57' W 125°33'0 0.0
2014-Jul-29 06:31N 48°57' W 125°33'0 0.0
2014-Jul-29 05:31N 48°57' W 125°33'0 0.0
2014-Jul-29 04:31N 48°57' W 125°33'0 0.0
2014-Jul-29 03:31N 48°57' W 125°33'0 0.0
2014-Jul-29 02:31N 48°57' W 125°33'0 0.0
2014-Jul-29 01:31N 48°57' W 125°33'0 0.0
2014-Jul-29 00:31N 48°57' W 125°33'0 0.0
2014-Jul-28 23:31N 48°57' W 125°33'0 0.0
2014-Jul-28 22:31N 48°57' W 125°33'0 0.0
2014-Jul-28 21:31N 48°57' W 125°33'0 0.0
2014-Jul-28 20:31N 48°57' W 125°33'0 0.0
2014-Jul-28 19:31N 48°57' W 125°33'0 0.0
2014-Jul-28 18:31N 48°57' W 125°33'2 2.3
2014-Jul-28 17:33N 48°55' W 125°31'9 0.2
2014-Jul-26 16:18N 48°52' W 125°18'0 0.0
2014-Jul-26 15:18N 48°52' W 125°18'0 0.0
2014-Jul-26 14:30N 48°52' W 125°18'0 0.0
2014-Jul-26 13:30N 48°52' W 125°18'0 0.0
2014-Jul-26 10:18N 48°52' W 125°18'0 0.0
2014-Jul-26 08:12N 48°52' W 125°18'0 0.0
2014-Jul-26 06:24N 48°52' W 125°18'0 0.0
2014-Jul-26 05:06N 48°52' W 125°18'0 0.0
2014-Jul-26 04:18N 48°52' W 125°18'0 0.0
2014-Jul-26 03:30N 48°52' W 125°18'0 0.0
2014-Jul-26 01:30N 48°52' W 125°18'0 0.0
2014-Jul-26 00:06N 48°52' W 125°18'0 0.0
2014-Jul-25 23:30N 48°52' W 125°18'0 0.0
2014-Jul-25 22:24N 48°52' W 125°18'0 0.0
2014-Jul-25 16:12N 48°52' W 125°18'0 0.0
2014-Jul-25 14:33N 48°52' W 125°18'0 0.0
2014-Jul-25 13:06N 48°52' W 125°18'0 0.0
2014-Jul-25 12:12N 48°52' W 125°18'0 0.0
2014-Jul-25 11:30N 48°52' W 125°18'0 0.0
2014-Jul-25 10:18N 48°52' W 125°18'0 0.0
2014-Jul-25 05:30N 48°52' W 125°18'0 0.0
2014-Jul-25 04:30N 48°52' W 125°18'0 0.0
2014-Jul-25 03:18N 48°52' W 125°18'0 0.0
2014-Jul-25 00:12N 48°52' W 125°18'  
2014-Jul-21 20:21N 48°36' W 124°47'1 8.2
2014-Jul-21 20:13N 48°35' W 124°46'5 7.8
2014-Jul-21 19:33N 48°33' W 124°38'8 7.3
2014-Jul-21 18:28N 48°30' W 124°27'6 7.1
2014-Jul-21 17:33N 48°27' W 124°18'7 7.3
2014-Jul-21 16:33N 48°24' W 124°09'31 1.4
2014-Jul-20 18:27N 48°25' W 123°23'3 3.8
2014-Jul-20 17:33N 48°23' W 123°19'  
Track history (hours):
 
Tides and Currents Weather Stations Pressure Air Temp Water Temp Dewpoint Dewpoint Depression Visibility Wind Speed Wind Dir Waves Ship Positions

Ellipsis

More information available from US FCC via Universal Licensing System and Coast Guard Vessel Documentation Center.

Last reported at 2014-Jul-29 22:31 UTC. Time now 2014-Jul-29 23:01 UTC.
Position N 48°57' W 125°33'.

Length 19 m.

Type: Pleasure craft. MMSI: 367355160.

Date/timePositionNaut miles runAvg speedWind from/ knotsBaromVisibWave heightAir tempDewpointWater temp
2014-Jul-29 22:31N 48°57' W 125°33'0 0.0
2014-Jul-29 21:31N 48°57' W 125°33'0 0.0
2014-Jul-29 20:31N 48°57' W 125°33'0 0.0
2014-Jul-29 19:31N 48°57' W 125°33'0 0.0
2014-Jul-29 18:31N 48°57' W 125°33'0 0.0
2014-Jul-29 17:31N 48°57' W 125°33'0 0.0
2014-Jul-29 16:31N 48°57' W 125°33'0 0.0
2014-Jul-29 15:31N 48°57' W 125°33'0 0.0
2014-Jul-29 14:31N 48°57' W 125°33'0 0.0
2014-Jul-29 13:31N 48°57' W 125°33'0 0.0
2014-Jul-29 12:31N 48°57' W 125°33'0 0.0
2014-Jul-29 11:31N 48°57' W 125°33'0 0.0
2014-Jul-29 10:31N 48°57' W 125°33'0 0.0
2014-Jul-29 09:31N 48°57' W 125°33'0 0.0
2014-Jul-29 08:31N 48°57' W 125°33'0 0.0
2014-Jul-29 07:31N 48°57' W 125°33'0 0.0
2014-Jul-29 06:31N 48°57' W 125°33'0 0.0
2014-Jul-29 05:31N 48°57' W 125°33'0 0.0
2014-Jul-29 04:31N 48°57' W 125°33'0 0.0
2014-Jul-29 03:31N 48°57' W 125°33'0 0.0
2014-Jul-29 02:31N 48°57' W 125°33'0 0.0
2014-Jul-29 01:31N 48°57' W 125°33'0 0.0
2014-Jul-29 00:31N 48°57' W 125°33'0 0.0
2014-Jul-28 23:31N 48°57' W 125°33'0 0.0
2014-Jul-28 22:31N 48°57' W 125°33'0 0.0
2014-Jul-28 21:31N 48°57' W 125°33'0 0.0
2014-Jul-28 20:31N 48°57' W 125°33'0 0.0
2014-Jul-28 19:31N 48°57' W 125°33'0 0.0
2014-Jul-28 18:31N 48°57' W 125°33'2 2.3
2014-Jul-28 17:33N 48°55' W 125°31'9 0.2
2014-Jul-26 16:18N 48°52' W 125°18'0 0.0
2014-Jul-26 15:18N 48°52' W 125°18'0 0.0
2014-Jul-26 14:30N 48°52' W 125°18'0 0.0
2014-Jul-26 13:30N 48°52' W 125°18'0 0.0
2014-Jul-26 10:18N 48°52' W 125°18'0 0.0
2014-Jul-26 08:12N 48°52' W 125°18'0 0.0
2014-Jul-26 06:24N 48°52' W 125°18'0 0.0
2014-Jul-26 05:06N 48°52' W 125°18'0 0.0
2014-Jul-26 04:18N 48°52' W 125°18'0 0.0
2014-Jul-26 03:30N 48°52' W 125°18'0 0.0
2014-Jul-26 01:30N 48°52' W 125°18'0 0.0
2014-Jul-26 00:06N 48°52' W 125°18'0 0.0
2014-Jul-25 23:30N 48°52' W 125°18'0 0.0
2014-Jul-25 22:24N 48°52' W 125°18'0 0.0
2014-Jul-25 16:12N 48°52' W 125°18'0 0.0
2014-Jul-25 14:33N 48°52' W 125°18'0 0.0
2014-Jul-25 13:06N 48°52' W 125°18'0 0.0
2014-Jul-25 12:12N 48°52' W 125°18'0 0.0
2014-Jul-25 11:30N 48°52' W 125°18'0 0.0
2014-Jul-25 10:18N 48°52' W 125°18'0 0.0
2014-Jul-25 05:30N 48°52' W 125°18'0 0.0
2014-Jul-25 04:30N 48°52' W 125°18'0 0.0
2014-Jul-25 03:18N 48°52' W 125°18'0 0.0
2014-Jul-25 00:12N 48°52' W 125°18'  
2014-Jul-21 20:21N 48°36' W 124°47'1 8.2
2014-Jul-21 20:13N 48°35' W 124°46'5 7.8
2014-Jul-21 19:33N 48°33' W 124°38'8 7.3
2014-Jul-21 18:28N 48°30' W 124°27'6 7.1
2014-Jul-21 17:33N 48°27' W 124°18'7 7.3
2014-Jul-21 16:33N 48°24' W 124°09'31 1.4
2014-Jul-20 18:27N 48°25' W 123°23'3 3.8
2014-Jul-20 17:33N 48°23' W 123°19'  

Dump ship's entire track history